sensor_id;sensor_type;location;lat;lon;timestamp;temperature;humidity
40638;DHT22;26336;44.696;10.622;2023-06-22T00:01:02;26.60;99.20
40638;DHT22;26336;44.696;10.622;2023-06-22T00:04:06;26.60;99.00
40638;DHT22;26336;44.696;10.622;2023-06-22T00:07:09;26.60;98.90
40638;DHT22;26336;44.696;10.622;2023-06-22T00:10:13;26.60;98.60
40638;DHT22;26336;44.696;10.622;2023-06-22T00:13:16;26.60;98.70
40638;DHT22;26336;44.696;10.622;2023-06-22T00:16:21;26.60;98.60
40638;DHT22;26336;44.696;10.622;2023-06-22T00:19:25;26.60;98.40
40638;DHT22;26336;44.696;10.622;2023-06-22T00:22:28;26.60;98.40
40638;DHT22;26336;44.696;10.622;2023-06-22T00:25:32;26.60;98.40
40638;DHT22;26336;44.696;10.622;2023-06-22T00:28:35;26.50;98.40
40638;DHT22;26336;44.696;10.622;2023-06-22T00:31:39;26.50;98.50
40638;DHT22;26336;44.696;10.622;2023-06-22T00:34:43;26.40;98.60
40638;DHT22;26336;44.696;10.622;2023-06-22T00:37:46;26.40;98.50
40638;DHT22;26336;44.696;10.622;2023-06-22T00:40:51;26.40;98.50
40638;DHT22;26336;44.696;10.622;2023-06-22T00:43:55;26.40;98.50
40638;DHT22;26336;44.696;10.622;2023-06-22T00:46:58;26.40;98.50
40638;DHT22;26336;44.696;10.622;2023-06-22T00:50:05;26.40;98.60
40638;DHT22;26336;44.696;10.622;2023-06-22T00:53:10;26.30;98.70
40638;DHT22;26336;44.696;10.622;2023-06-22T00:56:16;26.30;98.80
40638;DHT22;26336;44.696;10.622;2023-06-22T00:59:23;26.30;98.90
40638;DHT22;26336;44.696;10.622;2023-06-22T01:02:27;26.20;99.10
40638;DHT22;26336;44.696;10.622;2023-06-22T01:05:33;26.20;99.10
40638;DHT22;26336;44.696;10.622;2023-06-22T01:08:51;26.20;99.10
40638;DHT22;26336;44.696;10.622;2023-06-22T01:11:57;26.20;99.10
40638;DHT22;26336;44.696;10.622;2023-06-22T01:15:49;26.20;99.20
40638;DHT22;26336;44.696;10.622;2023-06-22T01:18:28;26.20;99.20
40638;DHT22;26336;44.696;10.622;2023-06-22T01:21:32;26.20;99.40
40638;DHT22;26336;44.696;10.622;2023-06-22T01:24:57;26.20;99.30
40638;DHT22;26336;44.696;10.622;2023-06-22T01:28:05;26.20;99.40
40638;DHT22;26336;44.696;10.622;2023-06-22T01:31:13;26.10;99.40
40638;DHT22;26336;44.696;10.622;2023-06-22T01:34:17;26.10;99.80
40638;DHT22;26336;44.696;10.622;2023-06-22T01:37:22;26.00;99.80
40638;DHT22;26336;44.696;10.622;2023-06-22T01:40:28;25.90;99.90
40638;DHT22;26336;44.696;10.622;2023-06-22T01:43:32;26.00;99.90
40638;DHT22;26336;44.696;10.622;2023-06-22T01:46:36;25.90;99.90
40638;DHT22;26336;44.696;10.622;2023-06-22T01:49:40;26.00;99.90
40638;DHT22;26336;44.696;10.622;2023-06-22T01:52:44;26.00;99.90
40638;DHT22;26336;44.696;10.622;2023-06-22T01:55:48;26.00;99.90
40638;DHT22;26336;44.696;10.622;2023-06-22T01:58:57;26.00;99.90
40638;DHT22;26336;44.696;10.622;2023-06-22T02:02:07;25.90;99.90
40638;DHT22;26336;44.696;10.622;2023-06-22T02:05:12;25.90;99.90
40638;DHT22;26336;44.696;10.622;2023-06-22T02:08:20;25.90;99.90
40638;DHT22;26336;44.696;10.622;2023-06-22T02:11:25;25.90;99.90
40638;DHT22;26336;44.696;10.622;2023-06-22T02:14:30;25.90;99.90
40638;DHT22;26336;44.696;10.622;2023-06-22T02:17:35;25.90;99.90
40638;DHT22;26336;44.696;10.622;2023-06-22T02:20:39;25.80;99.90
40638;DHT22;26336;44.696;10.622;2023-06-22T02:23:43;25.80;99.90
40638;DHT22;26336;44.696;10.622;2023-06-22T02:26:46;25.80;99.90
40638;DHT22;26336;44.696;10.622;2023-06-22T02:29:50;25.80;99.90
40638;DHT22;26336;44.696;10.622;2023-06-22T02:32:53;25.70;99.90
40638;DHT22;26336;44.696;10.622;2023-06-22T02:36:01;25.70;99.90
40638;DHT22;26336;44.696;10.622;2023-06-22T02:39:08;25.70;99.90
40638;DHT22;26336;44.696;10.622;2023-06-22T02:42:14;25.70;99.90
40638;DHT22;26336;44.696;10.622;2023-06-22T02:45:19;25.70;99.90
40638;DHT22;26336;44.696;10.622;2023-06-22T02:48:23;25.70;99.90
40638;DHT22;26336;44.696;10.622;2023-06-22T02:51:29;25.70;99.90
40638;DHT22;26336;44.696;10.622;2023-06-22T02:54:35;25.70;99.90
40638;DHT22;26336;44.696;10.622;2023-06-22T02:57:39;25.70;99.90
40638;DHT22;26336;44.696;10.622;2023-06-22T03:00:47;25.70;99.90
40638;DHT22;26336;44.696;10.622;2023-06-22T03:03:50;25.60;99.90
40638;DHT22;26336;44.696;10.622;2023-06-22T03:06:55;25.60;99.90
40638;DHT22;26336;44.696;10.622;2023-06-22T03:09:59;25.60;99.90
40638;DHT22;26336;44.696;10.622;2023-06-22T03:13:03;25.60;99.90
40638;DHT22;26336;44.696;10.622;2023-06-22T03:16:07;25.60;99.90
40638;DHT22;26336;44.696;10.622;2023-06-22T03:19:11;25.50;99.90
40638;DHT22;26336;44.696;10.622;2023-06-22T03:22:15;25.50;99.90
40638;DHT22;26336;44.696;10.622;2023-06-22T03:25:18;25.50;99.90
40638;DHT22;26336;44.696;10.622;2023-06-22T03:28:25;25.50;99.90
40638;DHT22;26336;44.696;10.622;2023-06-22T03:31:29;25.40;99.90
40638;DHT22;26336;44.696;10.622;2023-06-22T03:34:33;25.40;99.90
40638;DHT22;26336;44.696;10.622;2023-06-22T03:37:37;25.40;99.90
40638;DHT22;26336;44.696;10.622;2023-06-22T03:40:42;25.40;99.90
40638;DHT22;26336;44.696;10.622;2023-06-22T03:43:46;25.40;99.90
40638;DHT22;26336;44.696;10.622;2023-06-22T03:46:52;25.30;99.90
40638;DHT22;26336;44.696;10.622;2023-06-22T03:49:56;25.30;99.90
40638;DHT22;26336;44.696;10.622;2023-06-22T03:53:00;25.30;99.90
40638;DHT22;26336;44.696;10.622;2023-06-22T03:56:04;25.30;99.90
40638;DHT22;26336;44.696;10.622;2023-06-22T03:59:08;25.30;99.90
40638;DHT22;26336;44.696;10.622;2023-06-22T04:02:11;25.30;99.90
40638;DHT22;26336;44.696;10.622;2023-06-22T04:05:15;25.20;99.90
40638;DHT22;26336;44.696;10.622;2023-06-22T04:08:21;25.20;99.90
40638;DHT22;26336;44.696;10.622;2023-06-22T04:11:25;25.20;99.90
40638;DHT22;26336;44.696;10.622;2023-06-22T04:14:29;25.20;99.90
40638;DHT22;26336;44.696;10.622;2023-06-22T04:17:33;25.10;99.90
40638;DHT22;26336;44.696;10.622;2023-06-22T04:20:39;25.10;99.90
40638;DHT22;26336;44.696;10.622;2023-06-22T04:23:42;25.20;99.90
40638;DHT22;26336;44.696;10.622;2023-06-22T04:26:46;25.20;99.90
40638;DHT22;26336;44.696;10.622;2023-06-22T04:29:50;25.10;99.90
40638;DHT22;26336;44.696;10.622;2023-06-22T04:32:54;25.20;99.90
40638;DHT22;26336;44.696;10.622;2023-06-22T04:36:00;25.10;99.90
40638;DHT22;26336;44.696;10.622;2023-06-22T04:39:08;25.10;99.90
40638;DHT22;26336;44.696;10.622;2023-06-22T04:42:13;25.10;99.90
40638;DHT22;26336;44.696;10.622;2023-06-22T04:45:16;25.10;99.90
40638;DHT22;26336;44.696;10.622;2023-06-22T04:48:20;25.20;99.90
40638;DHT22;26336;44.696;10.622;2023-06-22T04:51:23;25.10;99.90
40638;DHT22;26336;44.696;10.622;2023-06-22T04:54:35;25.10;99.90
40638;DHT22;26336;44.696;10.622;2023-06-22T04:57:38;25.10;99.90
40638;DHT22;26336;44.696;10.622;2023-06-22T05:00:43;25.10;99.90
40638;DHT22;26336;44.696;10.622;2023-06-22T05:03:48;25.20;99.90
40638;DHT22;26336;44.696;10.622;2023-06-22T05:06:52;25.20;99.90
40638;DHT22;26336;44.696;10.622;2023-06-22T05:09:55;25.20;99.90
40638;DHT22;26336;44.696;10.622;2023-06-22T05:12:59;25.20;99.90
40638;DHT22;26336;44.696;10.622;2023-06-22T05:16:02;25.30;99.90
40638;DHT22;26336;44.696;10.622;2023-06-22T05:19:06;25.20;99.90
40638;DHT22;26336;44.696;10.622;2023-06-22T05:22:10;25.30;99.90
40638;DHT22;26336;44.696;10.622;2023-06-22T05:25:15;25.30;99.90
40638;DHT22;26336;44.696;10.622;2023-06-22T05:28:19;25.30;99.90
40638;DHT22;26336;44.696;10.622;2023-06-22T05:31:26;25.30;99.90
40638;DHT22;26336;44.696;10.622;2023-06-22T05:34:31;25.40;99.90
40638;DHT22;26336;44.696;10.622;2023-06-22T05:37:34;25.40;99.90
40638;DHT22;26336;44.696;10.622;2023-06-22T05:40:38;25.40;99.90
40638;DHT22;26336;44.696;10.622;2023-06-22T05:43:42;25.40;99.90
40638;DHT22;26336;44.696;10.622;2023-06-22T05:46:45;25.50;99.90
40638;DHT22;26336;44.696;10.622;2023-06-22T05:49:50;25.50;99.90
40638;DHT22;26336;44.696;10.622;2023-06-22T05:52:54;25.50;99.90
40638;DHT22;26336;44.696;10.622;2023-06-22T05:55:57;25.50;99.90
40638;DHT22;26336;44.696;10.622;2023-06-22T05:59:01;25.50;99.90
40638;DHT22;26336;44.696;10.622;2023-06-22T06:02:05;25.60;99.90
40638;DHT22;26336;44.696;10.622;2023-06-22T06:05:12;25.50;99.90
40638;DHT22;26336;44.696;10.622;2023-06-22T06:08:18;25.50;99.90
40638;DHT22;26336;44.696;10.622;2023-06-22T06:11:22;25.60;99.90
40638;DHT22;26336;44.696;10.622;2023-06-22T06:14:25;25.60;99.90
40638;DHT22;26336;44.696;10.622;2023-06-22T06:17:29;25.60;99.90
40638;DHT22;26336;44.696;10.622;2023-06-22T06:20:33;25.70;99.90
40638;DHT22;26336;44.696;10.622;2023-06-22T06:23:37;25.70;99.90
40638;DHT22;26336;44.696;10.622;2023-06-22T06:26:41;25.70;99.90
40638;DHT22;26336;44.696;10.622;2023-06-22T06:29:44;25.80;99.90
40638;DHT22;26336;44.696;10.622;2023-06-22T06:32:52;25.80;99.90
40638;DHT22;26336;44.696;10.622;2023-06-22T06:35:56;25.80;99.90
40638;DHT22;26336;44.696;10.622;2023-06-22T06:39:00;25.90;99.90
40638;DHT22;26336;44.696;10.622;2023-06-22T06:42:04;25.90;99.90
40638;DHT22;26336;44.696;10.622;2023-06-22T06:45:08;25.90;99.90
40638;DHT22;26336;44.696;10.622;2023-06-22T06:48:12;26.00;99.90
40638;DHT22;26336;44.696;10.622;2023-06-22T06:51:15;26.00;99.90
40638;DHT22;26336;44.696;10.622;2023-06-22T06:54:19;26.00;99.90
40638;DHT22;26336;44.696;10.622;2023-06-22T06:57:24;26.00;99.40
40638;DHT22;26336;44.696;10.622;2023-06-22T07:00:32;26.00;99.20
40638;DHT22;26336;44.696;10.622;2023-06-22T07:03:36;26.10;99.20
40638;DHT22;26336;44.696;10.622;2023-06-22T07:06:39;26.10;98.50
40638;DHT22;26336;44.696;10.622;2023-06-22T07:09:42;26.10;98.20
40638;DHT22;26336;44.696;10.622;2023-06-22T07:12:46;26.20;97.70
40638;DHT22;26336;44.696;10.622;2023-06-22T07:15:49;26.20;97.00
40638;DHT22;26336;44.696;10.622;2023-06-22T07:18:53;26.20;97.20
40638;DHT22;26336;44.696;10.622;2023-06-22T07:21:58;26.20;96.70
40638;DHT22;26336;44.696;10.622;2023-06-22T07:25:02;26.30;96.20
40638;DHT22;26336;44.696;10.622;2023-06-22T07:28:12;26.30;96.10
40638;DHT22;26336;44.696;10.622;2023-06-22T07:31:16;26.30;96.00
40638;DHT22;26336;44.696;10.622;2023-06-22T07:34:20;26.40;96.50
40638;DHT22;26336;44.696;10.622;2023-06-22T07:37:23;26.40;97.10
40638;DHT22;26336;44.696;10.622;2023-06-22T07:40:27;26.40;96.10
40638;DHT22;26336;44.696;10.622;2023-06-22T07:43:31;26.50;95.90
40638;DHT22;26336;44.696;10.622;2023-06-22T07:46:36;26.50;96.50
40638;DHT22;26336;44.696;10.622;2023-06-22T07:49:40;26.50;95.80
40638;DHT22;26336;44.696;10.622;2023-06-22T07:52:43;26.50;96.00
40638;DHT22;26336;44.696;10.622;2023-06-22T07:55:47;26.60;95.80
40638;DHT22;26336;44.696;10.622;2023-06-22T07:58:51;26.60;96.30
40638;DHT22;26336;44.696;10.622;2023-06-22T08:01:55;26.70;96.10
40638;DHT22;26336;44.696;10.622;2023-06-22T08:04:59;26.70;95.90
40638;DHT22;26336;44.696;10.622;2023-06-22T08:08:03;26.80;96.00
40638;DHT22;26336;44.696;10.622;2023-06-22T08:11:07;26.80;96.10
40638;DHT22;26336;44.696;10.622;2023-06-22T08:14:10;26.80;96.30
40638;DHT22;26336;44.696;10.622;2023-06-22T08:17:14;26.90;96.60
40638;DHT22;26336;44.696;10.622;2023-06-22T08:20:18;27.00;96.30
40638;DHT22;26336;44.696;10.622;2023-06-22T08:23:22;27.00;96.70
40638;DHT22;26336;44.696;10.622;2023-06-22T08:26:26;27.00;96.20
40638;DHT22;26336;44.696;10.622;2023-06-22T08:29:30;27.00;95.80
40638;DHT22;26336;44.696;10.622;2023-06-22T08:32:34;27.10;96.40
40638;DHT22;26336;44.696;10.622;2023-06-22T08:35:37;27.10;96.50
40638;DHT22;26336;44.696;10.622;2023-06-22T08:38:41;27.20;96.60
40638;DHT22;26336;44.696;10.622;2023-06-22T08:41:45;27.20;96.00
40638;DHT22;26336;44.696;10.622;2023-06-22T08:44:50;27.30;96.00
40638;DHT22;26336;44.696;10.622;2023-06-22T08:47:54;27.30;96.40
40638;DHT22;26336;44.696;10.622;2023-06-22T08:50:58;27.30;96.30
40638;DHT22;26336;44.696;10.622;2023-06-22T08:54:02;27.40;96.60
40638;DHT22;26336;44.696;10.622;2023-06-22T08:57:06;27.40;96.60
40638;DHT22;26336;44.696;10.622;2023-06-22T09:00:10;27.50;96.60
40638;DHT22;26336;44.696;10.622;2023-06-22T09:03:23;27.50;96.20
40638;DHT22;26336;44.696;10.622;2023-06-22T09:06:29;27.60;96.20
40638;DHT22;26336;44.696;10.622;2023-06-22T09:09:35;27.60;95.90
40638;DHT22;26336;44.696;10.622;2023-06-22T09:12:39;27.60;95.80
40638;DHT22;26336;44.696;10.622;2023-06-22T09:15:42;27.70;95.20
40638;DHT22;26336;44.696;10.622;2023-06-22T09:18:47;27.70;95.10
40638;DHT22;26336;44.696;10.622;2023-06-22T09:21:51;27.70;95.00
40638;DHT22;26336;44.696;10.622;2023-06-22T09:24:55;27.80;95.00
40638;DHT22;26336;44.696;10.622;2023-06-22T09:28:00;27.80;94.50
40638;DHT22;26336;44.696;10.622;2023-06-22T09:31:03;27.90;94.70
40638;DHT22;26336;44.696;10.622;2023-06-22T09:34:07;28.00;95.20
40638;DHT22;26336;44.696;10.622;2023-06-22T09:37:11;28.00;94.80
40638;DHT22;26336;44.696;10.622;2023-06-22T09:40:15;28.10;95.20
40638;DHT22;26336;44.696;10.622;2023-06-22T09:43:20;28.20;94.70
40638;DHT22;26336;44.696;10.622;2023-06-22T09:46:24;28.30;94.80
40638;DHT22;26336;44.696;10.622;2023-06-22T09:49:31;28.30;94.50
40638;DHT22;26336;44.696;10.622;2023-06-22T09:52:35;28.30;93.90
40638;DHT22;26336;44.696;10.622;2023-06-22T09:55:39;28.40;93.90
40638;DHT22;26336;44.696;10.622;2023-06-22T09:58:43;28.40;94.30
40638;DHT22;26336;44.696;10.622;2023-06-22T10:01:47;28.40;93.80
40638;DHT22;26336;44.696;10.622;2023-06-22T10:04:51;28.40;94.00
40638;DHT22;26336;44.696;10.622;2023-06-22T10:07:55;28.50;93.60
40638;DHT22;26336;44.696;10.622;2023-06-22T10:10:58;28.60;93.90
40638;DHT22;26336;44.696;10.622;2023-06-22T10:14:02;28.80;93.50
40638;DHT22;26336;44.696;10.622;2023-06-22T10:17:07;28.80;93.90
40638;DHT22;26336;44.696;10.622;2023-06-22T10:20:11;28.80;93.70
40638;DHT22;26336;44.696;10.622;2023-06-22T10:23:15;28.80;93.50
40638;DHT22;26336;44.696;10.622;2023-06-22T10:26:19;28.90;93.40
40638;DHT22;26336;44.696;10.622;2023-06-22T10:29:22;28.90;93.00
40638;DHT22;26336;44.696;10.622;2023-06-22T10:32:26;28.90;93.10
40638;DHT22;26336;44.696;10.622;2023-06-22T10:35:31;29.10;92.80
40638;DHT22;26336;44.696;10.622;2023-06-22T10:38:35;29.10;93.30
40638;DHT22;26336;44.696;10.622;2023-06-22T10:41:39;29.10;92.60
40638;DHT22;26336;44.696;10.622;2023-06-22T10:44:43;29.20;93.30
40638;DHT22;26336;44.696;10.622;2023-06-22T10:47:47;29.30;93.20
40638;DHT22;26336;44.696;10.622;2023-06-22T10:50:51;29.20;93.10
40638;DHT22;26336;44.696;10.622;2023-06-22T10:53:56;29.30;93.20
40638;DHT22;26336;44.696;10.622;2023-06-22T10:57:01;29.40;93.10
40638;DHT22;26336;44.696;10.622;2023-06-22T11:00:05;29.40;93.40
40638;DHT22;26336;44.696;10.622;2023-06-22T11:03:10;29.50;93.00
40638;DHT22;26336;44.696;10.622;2023-06-22T11:06:13;29.80;92.90
40638;DHT22;26336;44.696;10.622;2023-06-22T11:09:17;29.90;92.60
40638;DHT22;26336;44.696;10.622;2023-06-22T11:12:24;29.90;92.10
40638;DHT22;26336;44.696;10.622;2023-06-22T11:15:28;29.90;92.60
40638;DHT22;26336;44.696;10.622;2023-06-22T11:18:32;29.90;92.00
40638;DHT22;26336;44.696;10.622;2023-06-22T11:21:37;29.80;91.60
40638;DHT22;26336;44.696;10.622;2023-06-22T11:24:41;30.10;90.80
40638;DHT22;26336;44.696;10.622;2023-06-22T11:27:44;30.30;90.40
40638;DHT22;26336;44.696;10.622;2023-06-22T11:30:48;30.30;90.90
40638;DHT22;26336;44.696;10.622;2023-06-22T11:33:53;30.20;91.00
40638;DHT22;26336;44.696;10.622;2023-06-22T11:36:56;30.20;91.20
40638;DHT22;26336;44.696;10.622;2023-06-22T11:40:00;30.30;91.20
40638;DHT22;26336;44.696;10.622;2023-06-22T11:43:04;30.30;91.50
40638;DHT22;26336;44.696;10.622;2023-06-22T11:46:08;30.30;92.10
40638;DHT22;26336;44.696;10.622;2023-06-22T11:49:12;30.30;92.20
40638;DHT22;26336;44.696;10.622;2023-06-22T11:52:16;30.30;92.20
40638;DHT22;26336;44.696;10.622;2023-06-22T11:55:21;30.30;91.90
40638;DHT22;26336;44.696;10.622;2023-06-22T11:58:24;30.40;91.60
40638;DHT22;26336;44.696;10.622;2023-06-22T12:01:28;30.40;92.00
40638;DHT22;26336;44.696;10.622;2023-06-22T12:04:32;30.40;91.70
40638;DHT22;26336;44.696;10.622;2023-06-22T12:07:36;30.40;92.20
40638;DHT22;26336;44.696;10.622;2023-06-22T12:10:41;30.60;92.40
40638;DHT22;26336;44.696;10.622;2023-06-22T12:13:46;30.80;91.90
40638;DHT22;26336;44.696;10.622;2023-06-22T12:16:50;30.70;91.90
40638;DHT22;26336;44.696;10.622;2023-06-22T12:19:53;30.60;92.40
40638;DHT22;26336;44.696;10.622;2023-06-22T12:22:57;30.40;92.80
40638;DHT22;26336;44.696;10.622;2023-06-22T12:26:01;30.30;92.90
40638;DHT22;26336;44.696;10.622;2023-06-22T12:29:05;30.30;92.60
40638;DHT22;26336;44.696;10.622;2023-06-22T12:32:09;30.30;92.70
40638;DHT22;26336;44.696;10.622;2023-06-22T12:35:16;30.20;93.20
40638;DHT22;26336;44.696;10.622;2023-06-22T12:38:20;30.50;91.70
40638;DHT22;26336;44.696;10.622;2023-06-22T12:41:24;30.50;92.10
40638;DHT22;26336;44.696;10.622;2023-06-22T12:44:27;30.80;92.00
40638;DHT22;26336;44.696;10.622;2023-06-22T12:47:31;30.70;92.60
40638;DHT22;26336;44.696;10.622;2023-06-22T12:50:34;30.70;92.40
40638;DHT22;26336;44.696;10.622;2023-06-22T12:53:38;30.80;91.90
40638;DHT22;26336;44.696;10.622;2023-06-22T12:56:43;30.80;91.90
40638;DHT22;26336;44.696;10.622;2023-06-22T12:59:48;30.60;92.40
40638;DHT22;26336;44.696;10.622;2023-06-22T13:02:52;30.50;92.00
40638;DHT22;26336;44.696;10.622;2023-06-22T13:05:55;30.40;92.10
40638;DHT22;26336;44.696;10.622;2023-06-22T13:08:59;30.40;92.10
40638;DHT22;26336;44.696;10.622;2023-06-22T13:12:03;30.60;92.20
40638;DHT22;26336;44.696;10.622;2023-06-22T13:15:07;30.90;91.90
40638;DHT22;26336;44.696;10.622;2023-06-22T13:18:11;31.00;91.90
40638;DHT22;26336;44.696;10.622;2023-06-22T13:21:15;30.90;91.90
40638;DHT22;26336;44.696;10.622;2023-06-22T13:24:19;31.00;92.00
40638;DHT22;26336;44.696;10.622;2023-06-22T13:27:23;30.90;92.00
40638;DHT22;26336;44.696;10.622;2023-06-22T13:30:27;30.70;92.50
40638;DHT22;26336;44.696;10.622;2023-06-22T13:33:31;30.80;92.80
40638;DHT22;26336;44.696;10.622;2023-06-22T13:36:35;30.70;92.20
40638;DHT22;26336;44.696;10.622;2023-06-22T13:39:39;30.60;92.40
40638;DHT22;26336;44.696;10.622;2023-06-22T13:42:42;30.50;92.30
40638;DHT22;26336;44.696;10.622;2023-06-22T13:45:45;30.40;92.70
40638;DHT22;26336;44.696;10.622;2023-06-22T13:48:49;30.30;93.20
40638;DHT22;26336;44.696;10.622;2023-06-22T13:51:54;30.30;93.10
40638;DHT22;26336;44.696;10.622;2023-06-22T13:54:58;30.40;93.70
40638;DHT22;26336;44.696;10.622;2023-06-22T13:58:02;30.40;93.80
40638;DHT22;26336;44.696;10.622;2023-06-22T14:01:06;30.40;93.80
40638;DHT22;26336;44.696;10.622;2023-06-22T14:04:10;30.40;93.50
40638;DHT22;26336;44.696;10.622;2023-06-22T14:07:13;30.60;92.90
40638;DHT22;26336;44.696;10.622;2023-06-22T14:10:17;30.50;93.20
40638;DHT22;26336;44.696;10.622;2023-06-22T14:13:21;30.50;93.30
40638;DHT22;26336;44.696;10.622;2023-06-22T14:16:25;30.60;93.50
40638;DHT22;26336;44.696;10.622;2023-06-22T14:19:29;30.70;93.10
40638;DHT22;26336;44.696;10.622;2023-06-22T14:22:33;30.70;93.30
40638;DHT22;26336;44.696;10.622;2023-06-22T14:25:38;30.70;93.40
40638;DHT22;26336;44.696;10.622;2023-06-22T14:28:45;30.70;92.80
40638;DHT22;26336;44.696;10.622;2023-06-22T14:31:53;30.60;93.40
40638;DHT22;26336;44.696;10.622;2023-06-22T14:34:57;30.50;93.20
40638;DHT22;26336;44.696;10.622;2023-06-22T14:38:01;30.40;92.80
40638;DHT22;26336;44.696;10.622;2023-06-22T14:41:05;30.30;93.30
40638;DHT22;26336;44.696;10.622;2023-06-22T14:44:09;30.30;93.20
40638;DHT22;26336;44.696;10.622;2023-06-22T14:47:13;30.40;93.40
40638;DHT22;26336;44.696;10.622;2023-06-22T14:50:17;30.30;93.20
40638;DHT22;26336;44.696;10.622;2023-06-22T14:53:20;30.40;93.80
40638;DHT22;26336;44.696;10.622;2023-06-22T14:56:23;30.30;93.20
40638;DHT22;26336;44.696;10.622;2023-06-22T14:59:27;30.50;93.30
40638;DHT22;26336;44.696;10.622;2023-06-22T15:02:30;30.40;93.00
40638;DHT22;26336;44.696;10.622;2023-06-22T15:05:34;30.30;93.40
40638;DHT22;26336;44.696;10.622;2023-06-22T15:08:39;30.30;93.00
40638;DHT22;26336;44.696;10.622;2023-06-22T15:11:43;30.30;93.30
40638;DHT22;26336;44.696;10.622;2023-06-22T15:14:47;30.20;93.10
40638;DHT22;26336;44.696;10.622;2023-06-22T15:17:51;30.20;93.60
40638;DHT22;26336;44.696;10.622;2023-06-22T15:20:55;30.30;93.30
40638;DHT22;26336;44.696;10.622;2023-06-22T15:23:59;30.40;93.00
40638;DHT22;26336;44.696;10.622;2023-06-22T15:27:02;30.50;93.00
40638;DHT22;26336;44.696;10.622;2023-06-22T15:30:06;30.70;92.60
40638;DHT22;26336;44.696;10.622;2023-06-22T15:33:10;30.80;93.30
40638;DHT22;26336;44.696;10.622;2023-06-22T15:36:14;30.90;92.80
40638;DHT22;26336;44.696;10.622;2023-06-22T15:39:18;30.90;92.60
40638;DHT22;26336;44.696;10.622;2023-06-22T15:42:21;30.80;92.80
40638;DHT22;26336;44.696;10.622;2023-06-22T15:45:25;30.80;92.60
40638;DHT22;26336;44.696;10.622;2023-06-22T15:48:30;30.70;93.20
40638;DHT22;26336;44.696;10.622;2023-06-22T15:51:33;30.60;93.20
40638;DHT22;26336;44.696;10.622;2023-06-22T15:54:37;30.50;93.50
40638;DHT22;26336;44.696;10.622;2023-06-22T15:57:41;30.50;93.10
40638;DHT22;26336;44.696;10.622;2023-06-22T16:00:49;30.30;93.00
40638;DHT22;26336;44.696;10.622;2023-06-22T16:03:53;30.50;93.00
40638;DHT22;26336;44.696;10.622;2023-06-22T16:06:56;30.70;93.00
40638;DHT22;26336;44.696;10.622;2023-06-22T16:10:01;30.70;93.10
40638;DHT22;26336;44.696;10.622;2023-06-22T16:13:05;30.80;93.20
40638;DHT22;26336;44.696;10.622;2023-06-22T16:16:09;30.80;93.00
40638;DHT22;26336;44.696;10.622;2023-06-22T16:19:13;30.80;92.70
40638;DHT22;26336;44.696;10.622;2023-06-22T16:22:17;30.70;93.00
40638;DHT22;26336;44.696;10.622;2023-06-22T16:25:20;30.60;93.30
40638;DHT22;26336;44.696;10.622;2023-06-22T16:28:24;30.60;93.20
40638;DHT22;26336;44.696;10.622;2023-06-22T16:31:28;30.50;93.40
40638;DHT22;26336;44.696;10.622;2023-06-22T16:34:33;30.30;93.50
40638;DHT22;26336;44.696;10.622;2023-06-22T16:37:43;30.30;94.20
40638;DHT22;26336;44.696;10.622;2023-06-22T16:40:47;30.30;93.70
40638;DHT22;26336;44.696;10.622;2023-06-22T16:43:51;30.30;93.80
40638;DHT22;26336;44.696;10.622;2023-06-22T16:46:55;30.40;92.90
40638;DHT22;26336;44.696;10.622;2023-06-22T16:50:00;30.30;93.50
40638;DHT22;26336;44.696;10.622;2023-06-22T16:53:04;30.30;93.60
40638;DHT22;26336;44.696;10.622;2023-06-22T16:56:08;30.20;93.60
40638;DHT22;26336;44.696;10.622;2023-06-22T16:59:11;30.10;93.70
40638;DHT22;26336;44.696;10.622;2023-06-22T17:02:16;30.10;94.40
40638;DHT22;26336;44.696;10.622;2023-06-22T17:05:21;30.00;94.50
40638;DHT22;26336;44.696;10.622;2023-06-22T17:08:27;30.00;95.10
40638;DHT22;26336;44.696;10.622;2023-06-22T17:11:32;30.00;95.00
40638;DHT22;26336;44.696;10.622;2023-06-22T17:14:37;29.90;94.50
40638;DHT22;26336;44.696;10.622;2023-06-22T17:17:41;30.00;94.30
40638;DHT22;26336;44.696;10.622;2023-06-22T17:20:46;30.00;94.40
40638;DHT22;26336;44.696;10.622;2023-06-22T17:23:50;30.00;95.40
40638;DHT22;26336;44.696;10.622;2023-06-22T17:26:54;30.00;95.10
40638;DHT22;26336;44.696;10.622;2023-06-22T17:30:05;29.90;95.00
40638;DHT22;26336;44.696;10.622;2023-06-22T17:33:09;29.80;95.40
40638;DHT22;26336;44.696;10.622;2023-06-22T17:36:15;29.90;94.90
40638;DHT22;26336;44.696;10.622;2023-06-22T17:39:20;29.80;94.80
40638;DHT22;26336;44.696;10.622;2023-06-22T17:42:23;29.80;95.00
40638;DHT22;26336;44.696;10.622;2023-06-22T17:45:28;29.80;94.70
40638;DHT22;26336;44.696;10.622;2023-06-22T17:48:32;29.80;94.80
40638;DHT22;26336;44.696;10.622;2023-06-22T17:51:39;29.80;94.50
40638;DHT22;26336;44.696;10.622;2023-06-22T17:54:45;29.80;94.40
40638;DHT22;26336;44.696;10.622;2023-06-22T17:57:54;29.80;94.70
40638;DHT22;26336;44.696;10.622;2023-06-22T18:01:00;29.90;94.80
40638;DHT22;26336;44.696;10.622;2023-06-22T18:04:07;29.80;95.00
40638;DHT22;26336;44.696;10.622;2023-06-22T18:07:11;29.80;94.90
40638;DHT22;26336;44.696;10.622;2023-06-22T18:10:15;29.80;94.90
40638;DHT22;26336;44.696;10.622;2023-06-22T18:13:19;29.80;94.60
40638;DHT22;26336;44.696;10.622;2023-06-22T18:16:23;29.80;94.60
40638;DHT22;26336;44.696;10.622;2023-06-22T18:19:28;29.80;94.80
40638;DHT22;26336;44.696;10.622;2023-06-22T18:22:33;29.70;94.70
40638;DHT22;26336;44.696;10.622;2023-06-22T18:25:40;29.70;94.70
40638;DHT22;26336;44.696;10.622;2023-06-22T18:28:47;29.70;94.70
40638;DHT22;26336;44.696;10.622;2023-06-22T18:31:51;29.70;94.60
40638;DHT22;26336;44.696;10.622;2023-06-22T18:34:56;29.70;95.10
40638;DHT22;26336;44.696;10.622;2023-06-22T18:37:59;29.60;95.10
40638;DHT22;26336;44.696;10.622;2023-06-22T18:41:04;29.60;95.50
40638;DHT22;26336;44.696;10.622;2023-06-22T18:44:11;29.60;95.50
40638;DHT22;26336;44.696;10.622;2023-06-22T18:47:25;29.60;96.20
40638;DHT22;26336;44.696;10.622;2023-06-22T18:53:39;29.60;96.00
40638;DHT22;26336;44.696;10.622;2023-06-22T18:56:51;29.50;95.90
40638;DHT22;26336;44.696;10.622;2023-06-22T19:03:00;29.50;96.50
40638;DHT22;26336;44.696;10.622;2023-06-22T19:06:04;29.50;96.70
40638;DHT22;26336;44.696;10.622;2023-06-22T19:09:14;29.50;97.00
40638;DHT22;26336;44.696;10.622;2023-06-22T19:12:24;29.50;96.70